»·PEaware :: N716TH KSBD-KEMT

N716TH :: KSBD-KEMT

FLIGHT INFORMATION

Flight Status: Arrived
Operator: Privately registered:
United States
More flights under this callsign
Pilot: Danny R. (17997)
Aircraft: CESSNA 172 SKYHAWK
(C172)
More flights by this aircraft type
Origin: KSBD San Bernardino Intl
United States
Destination: KEMT El Monte
United States
More flights between these airports :: More routes between these airports
Route: KSBD POM KEMT
File this flight plan on PilotEdge
Remarks: CAT07
Altitude:
(Current/Filed)
3,500ft
Speed:
(Current/Filed)
100kts
Departed: 21-Feb-18 09:16 AM
Arrived: 21-Feb-18 09:48 AM
Distance/Time
Traveled:
40nm/0:31
Distance/Time
To Go:
Arrived

Flight Plot

Page will automatically refresh every two minutes.

Flight plan parsing failed; only flown route is shown


Map Options




Map Legend


Flown Route
Filed Route
Departure Airport
Arrival Airport
Navaid (VOR, NDB)
Fix

Horizontal Profiles

Position Reports

Time Latitude Longitude Heading Altitude Ground
Speed
21-Feb-18 08:48 34.102166 -117.224730 93 1161ft 0kts
21-Feb-18 08:49 34.102166 -117.224730 93 1161ft 0kts
21-Feb-18 08:50 34.102166 -117.224730 93 1161ft 0kts
21-Feb-18 08:51 34.102166 -117.224730 93 1161ft 0kts
21-Feb-18 08:52 34.102166 -117.224730 93 1161ft 0kts
21-Feb-18 08:53 34.102166 -117.224730 93 1161ft 0kts
21-Feb-18 08:54 34.102166 -117.224730 93 1161ft 0kts
21-Feb-18 08:55 34.102166 -117.224730 93 1161ft 0kts
21-Feb-18 08:56 34.102166 -117.224730 93 1161ft 0kts
21-Feb-18 08:57 34.102166 -117.224730 93 1161ft 0kts
21-Feb-18 08:58 34.102166 -117.224730 93 1161ft 0kts
21-Feb-18 08:59 34.102166 -117.224730 93 1161ft 0kts
21-Feb-18 09:00 34.102166 -117.224730 93 1161ft 0kts
21-Feb-18 09:01 34.102166 -117.224730 93 1161ft 0kts
21-Feb-18 09:02 34.102166 -117.224730 93 1161ft 0kts
21-Feb-18 09:03 34.102166 -117.224730 93 1161ft 0kts
21-Feb-18 09:04 34.102166 -117.224730 93 1161ft 0kts
21-Feb-18 09:05 34.102166 -117.224730 93 1161ft 0kts
21-Feb-18 09:06 34.101717 -117.224695 167 1161ft 6kts
21-Feb-18 09:07 34.101241 -117.224559 164 1161ft 0kts
21-Feb-18 09:08 34.101241 -117.224559 164 1161ft 0kts
21-Feb-18 09:09 34.101241 -117.224559 164 1161ft 0kts
21-Feb-18 09:10 34.101241 -117.224559 164 1161ft 0kts
21-Feb-18 09:11 34.099998 -117.226493 204 1161ft 9kts
21-Feb-18 09:12 34.098230 -117.231211 247 1161ft 24kts
21-Feb-18 09:13 34.096993 -117.235415 248 1161ft 19kts
21-Feb-18 09:14 34.094930 -117.242365 249 1161ft 23kts
21-Feb-18 09:15 34.092755 -117.249723 249 1161ft 19kts
21-Feb-18 09:16 34.092066 -117.251228 145 1161ft 0kts
21-Feb-18 09:17 34.092066 -117.251228 145 1161ft 0kts
21-Feb-18 09:18 34.092066 -117.251228 145 1161ft 0kts
21-Feb-18 09:19 34.092066 -117.251228 145 1161ft 0kts
21-Feb-18 09:20 34.091997 -117.251148 131 1161ft 3kts
21-Feb-18 09:21 34.091540 -117.250726 161 1161ft 0kts
21-Feb-18 09:22 34.091000 -117.250247 137 1161ft 10kts
21-Feb-18 09:23 34.095536 -117.234364 70 1604ft 69kts
21-Feb-18 09:24 34.104388 -117.215283 359 2364ft 71kts
21-Feb-18 09:25 34.119462 -117.225801 264 3110ft 70kts
21-Feb-18 09:26 34.112146 -117.247508 225 3786ft 75kts
21-Feb-18 09:27 34.097862 -117.264480 281 3850ft 83kts
21-Feb-18 09:28 34.099315 -117.290994 259 3771ft 83kts
21-Feb-18 09:29 34.096149 -117.317414 270 3348ft 79kts
21-Feb-18 09:30 34.095953 -117.343422 265 3073ft 76kts
21-Feb-18 09:31 34.093623 -117.368691 257 3250ft 77kts
21-Feb-18 09:32 34.090968 -117.394485 264 3569ft 81kts
21-Feb-18 09:33 34.088062 -117.422324 265 3771ft 89kts
21-Feb-18 09:34 34.085629 -117.453432 264 3855ft 97kts
21-Feb-18 09:35 34.084867 -117.486865 269 3756ft 103kts
21-Feb-18 09:36 34.085130 -117.520725 270 3681ft 101kts
21-Feb-18 09:37 34.088839 -117.554276 281 3554ft 101kts
21-Feb-18 09:38 34.095033 -117.587203 280 3423ft 101kts
21-Feb-18 09:39 34.099636 -117.619465 278 3308ft 100kts
21-Feb-18 09:40 34.095097 -117.650844 261 3272ft 94kts
21-Feb-18 09:41 34.091320 -117.676734 259 3216ft 94kts
21-Feb-18 09:42 34.086164 -117.707032 264 3229ft 92kts
21-Feb-18 09:43 34.082844 -117.737561 260 3268ft 92kts
21-Feb-18 09:44 34.077592 -117.767885 258 3309ft 93kts
21-Feb-18 09:45 34.071832 -117.798368 259 3325ft 95kts
21-Feb-18 09:46 34.073279 -117.828275 285 3413ft 88kts
21-Feb-18 09:47 34.079026 -117.857539 283 3441ft 88kts
21-Feb-18 09:48 34.084129 -117.886687 281 3441ft 90kts
21-Feb-18 09:49 34.088710 -117.915979 273 3351ft 91kts
21-Feb-18 09:50 34.093136 -117.945393 298 3033ft 93kts
21-Feb-18 09:51 34.103484 -117.974462 289 2220ft 99kts
21-Feb-18 09:52 34.112244 -118.002838 289 1394ft 82kts
21-Feb-18 09:53 34.107973 -118.022672 203 825ft 69kts
21-Feb-18 09:54 34.092301 -118.031300 204 361ft 59kts
21-Feb-18 09:55 34.085380 -118.034628 116 299ft 0kts
21-Feb-18 09:56 34.085376 -118.034618 115 299ft 1kts
21-Feb-18 09:57 34.085761 -118.033321 32 299ft 0kts
21-Feb-18 09:58 34.085762 -118.033320 32 299ft 0kts
21-Feb-18 09:59 34.085762 -118.033320 32 299ft 0kts
21-Feb-18 10:00 34.085762 -118.033320 32 299ft 0kts
21-Feb-18 10:01 34.085762 -118.033320 32 299ft 0kts
21-Feb-18 10:02 34.085762 -118.033320 32 299ft 0kts
21-Feb-18 10:03 34.085762 -118.033320 32 299ft 0kts
21-Feb-18 10:04 34.085762 -118.033320 32 299ft 0kts
21-Feb-18 10:05 34.085762 -118.033320 32 299ft 0kts
21-Feb-18 10:06 34.085762 -118.033320 32 299ft 0kts
21-Feb-18 10:07 34.085762 -118.033320 32 299ft 0kts
21-Feb-18 10:08 34.085762 -118.033320 32 299ft 0kts
21-Feb-18 10:09 34.085762 -118.033320 32 299ft 0kts

Navigation Log

Ident Type
Flight plan parsing failed, navigation log unavailable